Terminal Aerodrome Forecast
Issued by NWS Green Bay, WI

Home | Current Version | Previous Version | Graphics & Text | Print | Product List | Glossary On
Versions: 1 2 3 4 5 6 7 8 9 10 11 12 13 14 15 16 17 18 19 20 21 22 23 24 25 26 27 28 29 30 31
000
FTUS43 KGRB 211720
TAFGRB
TAF
KGRB 211720Z 2118/2218 25007KT P6SM SKC
     FM212200 21006KT P6SM SCT250
     FM220300 18006KT P6SM SCT250 WS009/20035KT
     FM220700 20006KT P6SM SCT100 WS009/24035KT
     FM221400 23007KT P6SM SCT150=

USA.gov is the U.S. government's official web portal to all federal, state and local government web resources and services.